createdAt,value
2023-04-11T00:00:20.102Z,9.87
2023-04-11T00:01:20.386Z,9.89
2023-04-11T00:02:20.946Z,9.91
2023-04-11T00:03:21.330Z,9.87
2023-04-11T00:04:21.502Z,9.87
2023-04-11T00:05:21.779Z,9.87
2023-04-11T00:06:22.122Z,9.89
2023-04-11T00:07:22.483Z,9.87
2023-04-11T00:08:22.857Z,9.87
2023-04-11T00:09:23.173Z,9.86
2023-04-11T00:10:23.524Z,9.84
2023-04-11T00:11:23.865Z,9.84
2023-04-11T00:12:24.210Z,9.84
2023-04-11T00:13:24.591Z,9.84
2023-04-11T00:14:24.930Z,9.84
2023-04-11T00:15:25.276Z,9.84
2023-04-11T00:16:25.680Z,9.86
2023-04-11T00:17:26.040Z,9.86
2023-04-11T00:18:26.373Z,9.83
2023-04-11T00:19:26.711Z,9.84
2023-04-11T00:20:27.072Z,9.83
2023-04-11T00:21:27.415Z,9.83
2023-04-11T00:22:27.784Z,9.83
2023-04-11T00:23:28.131Z,9.83
2023-04-11T00:24:28.429Z,9.84
2023-04-11T00:25:28.771Z,9.84
2023-04-11T00:26:29.127Z,9.86
2023-04-11T00:27:29.474Z,9.86
2023-04-11T00:28:29.861Z,9.83
2023-04-11T00:29:30.199Z,9.83
2023-04-11T00:30:30.539Z,9.84
2023-04-11T00:31:30.886Z,9.83
2023-04-11T00:32:31.268Z,9.84
2023-04-11T00:33:31.593Z,9.84
2023-04-11T00:34:31.943Z,9.82
2023-04-11T00:35:32.324Z,9.83
2023-04-11T00:36:32.752Z,9.83
2023-04-11T00:37:33.019Z,9.83
2023-04-11T00:38:33.376Z,9.83
2023-04-11T00:39:33.721Z,9.82
2023-04-11T00:40:34.051Z,9.82
2023-04-11T00:41:34.409Z,9.82
2023-04-11T00:42:34.776Z,9.82
2023-04-11T00:43:35.158Z,9.82
2023-04-11T00:44:35.476Z,9.82
2023-04-11T00:45:35.853Z,9.80
2023-04-11T00:46:36.190Z,9.79
2023-04-11T00:47:36.599Z,9.77
2023-04-11T00:48:36.921Z,9.76
2023-04-11T00:49:37.214Z,9.73
2023-04-11T00:50:37.551Z,9.74
2023-04-11T00:51:37.903Z,9.73
2023-04-11T00:52:38.292Z,9.73
2023-04-11T00:53:38.630Z,9.72
2023-04-11T00:54:38.930Z,9.72
2023-04-11T00:55:39.279Z,9.69
2023-04-11T00:56:39.622Z,9.69
2023-04-11T00:57:39.969Z,9.69
2023-04-11T00:58:40.347Z,9.68
2023-04-11T00:59:40.673Z,9.68
2023-04-11T01:00:41.018Z,9.69
2023-04-11T01:01:41.424Z,9.68
2023-04-11T01:02:41.818Z,9.65
2023-04-11T01:03:42.136Z,9.66
2023-04-11T01:04:42.407Z,9.66
2023-04-11T01:05:42.751Z,9.65
2023-04-11T01:06:43.108Z,9.65
2023-04-11T01:07:43.452Z,9.64
2023-04-11T01:08:43.918Z,9.64
2023-04-11T01:09:44.140Z,9.64
2023-04-11T01:10:44.490Z,9.64
2023-04-11T01:11:44.857Z,9.62
2023-04-11T01:12:45.187Z,9.62
2023-04-11T01:13:45.537Z,9.62
2023-04-11T01:14:45.890Z,9.64
2023-04-11T01:15:46.262Z,9.64
2023-04-11T01:16:46.641Z,9.64
2023-04-11T01:17:46.958Z,9.64
2023-04-11T01:18:47.294Z,9.64
2023-04-11T01:19:47.633Z,9.64
2023-04-11T01:20:47.984Z,9.65
2023-04-11T01:21:48.336Z,9.62
2023-04-11T01:22:48.672Z,9.65
2023-04-11T01:23:49.042Z,9.66
2023-04-11T01:24:49.384Z,9.66
2023-04-11T01:25:49.724Z,9.66
2023-04-11T01:26:50.088Z,9.69
2023-04-11T01:27:50.438Z,9.66
2023-04-11T01:28:50.805Z,9.68
2023-04-11T01:29:51.103Z,9.68
2023-04-11T01:30:51.523Z,9.66
2023-04-11T01:31:51.816Z,9.65
2023-04-11T01:32:52.167Z,9.65
2023-04-11T01:33:52.525Z,9.64
2023-04-11T01:34:52.861Z,9.61
2023-04-11T01:35:53.255Z,9.62
2023-04-11T01:36:53.571Z,9.62
2023-04-11T01:37:53.926Z,9.56
2023-04-11T01:38:54.500Z,9.55
2023-04-11T01:39:54.629Z,9.54
2023-04-11T01:40:54.999Z,9.51
2023-04-11T01:41:55.341Z,9.50
2023-04-11T01:42:55.699Z,9.48
2023-04-11T01:43:56.114Z,9.48
2023-04-11T01:44:56.428Z,9.47
2023-04-11T01:45:56.741Z,9.51
2023-04-11T01:46:57.088Z,9.47
2023-04-11T01:47:57.540Z,9.47
2023-04-11T01:48:58.038Z,9.47
2023-04-11T01:49:58.142Z,9.44
2023-04-11T01:50:58.483Z,9.43
2023-04-11T01:51:58.826Z,9.43
2023-04-11T01:52:59.172Z,9.44
2023-04-11T01:53:59.540Z,9.43
2023-04-11T01:54:59.922Z,9.44
2023-04-11T01:56:00.208Z,9.43
2023-04-11T01:57:00.556Z,9.46
2023-04-11T01:58:00.909Z,9.46
2023-04-11T01:59:01.289Z,9.44
2023-04-11T02:00:01.659Z,9.44
2023-04-11T02:01:02.093Z,9.46
2023-04-11T02:02:02.424Z,9.46
2023-04-11T02:03:02.796Z,9.47
2023-04-11T02:04:03.207Z,9.46
2023-04-11T02:05:03.381Z,9.46
2023-04-11T02:06:03.720Z,9.47
2023-04-11T02:07:04.058Z,9.46
2023-04-11T02:08:04.405Z,9.46
2023-04-11T02:09:04.771Z,9.47
2023-04-11T02:10:05.147Z,9.48
2023-04-11T02:11:05.476Z,9.48
2023-04-11T02:12:05.836Z,9.50
2023-04-11T02:13:06.182Z,9.50
2023-04-11T02:14:06.534Z,9.51
2023-04-11T02:15:06.891Z,9.54
2023-04-11T02:16:07.286Z,9.50
2023-04-11T02:17:07.590Z,9.50
2023-04-11T02:18:08.026Z,9.55
2023-04-11T02:19:08.343Z,9.54
2023-04-11T02:20:08.691Z,9.54
2023-04-11T02:21:09.035Z,9.54
2023-04-11T02:22:09.404Z,9.51
2023-04-11T02:23:09.861Z,9.54
2023-04-11T02:24:10.116Z,9.54
2023-04-11T02:25:10.493Z,9.55
2023-04-11T02:26:10.815Z,9.56
2023-04-11T02:27:11.159Z,9.55
2023-04-11T02:28:11.532Z,9.56
2023-04-11T02:29:11.869Z,9.55
2023-04-11T02:30:12.204Z,9.54
2023-04-11T02:31:12.657Z,9.54
2023-04-11T02:32:13.006Z,9.55
2023-04-11T02:33:13.240Z,9.55
2023-04-11T02:34:13.614Z,9.58
2023-04-11T02:35:13.908Z,9.59
2023-04-11T02:36:14.274Z,9.59
2023-04-11T02:37:14.606Z,9.62
2023-04-11T02:38:14.968Z,9.65
2023-04-11T02:39:15.332Z,9.68
2023-04-11T02:40:15.698Z,9.68
2023-04-11T02:41:16.018Z,9.64
2023-04-11T02:42:16.373Z,9.51
2023-04-11T02:43:16.735Z,9.40
2023-04-11T02:44:17.133Z,9.25
2023-04-11T02:45:17.462Z,9.16
2023-04-11T02:46:17.837Z,9.13
2023-04-11T02:47:18.178Z,9.11
2023-04-11T02:48:18.513Z,9.10
2023-04-11T02:49:18.877Z,8.99
2023-04-11T02:50:19.228Z,8.82
2023-04-11T02:51:19.584Z,8.73
2023-04-11T02:52:19.936Z,8.64
2023-04-11T02:53:20.287Z,8.55
2023-04-11T02:54:20.665Z,8.52
2023-04-11T02:55:21.014Z,8.51
2023-04-11T02:56:21.329Z,8.48
2023-04-11T02:57:21.674Z,8.46
2023-04-11T02:58:22.032Z,8.38
2023-04-11T02:59:22.393Z,8.37
2023-04-11T03:00:22.759Z,8.36
2023-04-11T03:01:23.083Z,8.30
2023-04-11T03:02:23.763Z,8.27
2023-04-11T03:03:23.875Z,8.27
2023-04-11T03:04:24.154Z,8.26
2023-04-11T03:05:24.448Z,8.24
2023-04-11T03:06:24.819Z,8.23
2023-04-11T03:07:25.142Z,8.23
2023-04-11T03:08:25.495Z,8.20
2023-04-11T03:09:25.879Z,8.20
2023-04-11T03:10:26.183Z,8.19
2023-04-11T03:11:26.554Z,8.18
2023-04-11T03:12:26.889Z,8.15
2023-04-11T03:13:27.237Z,8.12
2023-04-11T03:14:27.596Z,8.10
2023-04-11T03:15:27.937Z,8.10
2023-04-11T03:16:28.365Z,8.08
2023-04-11T03:17:28.675Z,8.08
2023-04-11T03:18:29.004Z,8.06
2023-04-11T03:19:29.372Z,8.05
2023-04-11T03:20:29.735Z,8.05
2023-04-11T03:21:30.073Z,8.03
2023-04-11T03:22:30.421Z,8.01
2023-04-11T03:23:30.782Z,8.00
2023-04-11T03:24:31.173Z,7.98
2023-04-11T03:25:31.475Z,7.98
2023-04-11T03:26:31.829Z,7.97
2023-04-11T03:27:32.162Z,7.98
2023-04-11T03:28:32.520Z,7.98
2023-04-11T03:29:32.876Z,7.98
2023-04-11T03:30:33.253Z,7.97
2023-04-11T03:31:33.623Z,7.98
2023-04-11T03:32:33.958Z,8.00
2023-04-11T03:33:34.305Z,8.00
2023-04-11T03:34:34.659Z,8.01
2023-04-11T03:35:35.084Z,8.00
2023-04-11T03:36:35.344Z,7.97
2023-04-11T03:37:35.691Z,7.97
2023-04-11T03:38:36.048Z,7.97
2023-04-11T03:39:36.508Z,7.97
2023-04-11T03:40:36.727Z,7.97
2023-04-11T03:41:37.073Z,7.95
2023-04-11T03:42:37.433Z,7.95
2023-04-11T03:43:37.770Z,7.93
2023-04-11T03:44:38.187Z,7.91
2023-04-11T03:45:38.481Z,7.88
2023-04-11T03:46:38.852Z,7.90
2023-04-11T03:47:39.215Z,7.88
2023-04-11T03:48:39.518Z,7.85
2023-04-11T03:49:39.933Z,7.87
2023-04-11T03:50:40.269Z,7.83
2023-04-11T03:51:40.610Z,7.82
2023-04-11T03:52:40.975Z,7.80
2023-04-11T03:53:41.325Z,7.82
2023-04-11T03:54:41.707Z,7.82
2023-04-11T03:55:42.024Z,7.82
2023-04-11T03:56:42.398Z,7.80
2023-04-11T03:57:42.766Z,7.79
2023-04-11T03:58:43.083Z,7.77
2023-04-11T03:59:43.474Z,7.79
2023-04-11T04:00:43.659Z,7.76
2023-04-11T04:01:43.985Z,7.75
2023-04-11T04:02:44.370Z,7.73
2023-04-11T04:03:44.697Z,7.75
2023-04-11T04:04:44.763Z,7.73
2023-04-11T04:05:44.998Z,7.72
2023-04-11T04:06:45.129Z,7.72
2023-04-11T04:07:45.437Z,7.69
2023-04-11T04:08:45.718Z,7.67
2023-04-11T04:09:46.046Z,7.67
2023-04-11T04:10:46.316Z,7.67
2023-04-11T04:11:46.603Z,7.63
2023-04-11T04:12:46.904Z,7.61
2023-04-11T04:13:47.221Z,7.60
2023-04-11T04:14:47.362Z,7.60
2023-04-11T04:15:47.643Z,7.58
2023-04-11T04:16:47.974Z,7.58
2023-04-11T04:17:48.120Z,7.58
2023-04-11T04:18:48.280Z,7.58
2023-04-11T04:19:48.482Z,7.60
2023-04-11T04:20:48.616Z,7.58
2023-04-11T04:21:48.897Z,7.56
2023-04-11T04:22:49.073Z,7.56
2023-04-11T04:23:49.235Z,7.54
2023-04-11T04:24:49.541Z,7.51
2023-04-11T04:25:49.822Z,7.53
2023-04-11T04:26:50.096Z,7.50
2023-04-11T04:27:50.409Z,7.47
2023-04-11T04:28:50.715Z,7.48
2023-04-11T04:30:03.760Z,7.45
2023-04-11T04:30:51.158Z,7.45
2023-04-11T04:31:51.508Z,7.43
2023-04-11T04:32:51.775Z,7.42
2023-04-11T04:33:52.075Z,7.42
2023-04-11T04:34:52.236Z,7.40
2023-04-11T04:35:52.699Z,7.40
2023-04-11T04:36:52.678Z,7.39
2023-04-11T04:37:52.852Z,7.36
2023-04-11T04:38:53.018Z,7.36
2023-04-11T04:39:53.207Z,7.33
2023-04-11T04:40:53.479Z,7.32
2023-04-11T04:41:53.658Z,7.33
2023-04-11T04:42:53.829Z,7.32
2023-04-11T04:43:54.240Z,7.31
2023-04-11T04:44:54.330Z,7.32
2023-04-11T04:45:54.539Z,7.31
2023-04-11T04:46:54.758Z,7.32
2023-04-11T04:47:54.953Z,7.32
2023-04-11T04:48:55.108Z,7.31
2023-04-11T04:49:55.315Z,7.29
2023-04-11T04:50:55.571Z,7.29
2023-04-11T04:51:55.742Z,7.25
2023-04-11T04:52:55.919Z,7.24
2023-04-11T04:53:56.208Z,7.24
2023-04-11T04:54:56.287Z,7.24
2023-04-11T04:55:56.436Z,7.24
2023-04-11T04:56:56.619Z,7.24
2023-04-11T04:57:56.904Z,7.25
2023-04-11T04:58:57.174Z,7.25
2023-04-11T04:59:57.379Z,7.24
2023-04-11T05:00:57.660Z,7.25
2023-04-11T05:01:57.880Z,7.28
2023-04-11T05:02:58.346Z,7.29
2023-04-11T05:03:58.580Z,7.28
2023-04-11T05:04:58.455Z,7.24
2023-04-11T05:05:58.736Z,7.24
2023-04-11T05:06:58.920Z,7.31
2023-04-11T05:07:59.074Z,7.31
2023-04-11T05:08:59.254Z,7.29
2023-04-11T05:09:59.575Z,7.29
2023-04-11T05:10:59.740Z,7.28
2023-04-11T05:11:59.900Z,7.23
2023-04-11T05:13:00.117Z,7.28
2023-04-11T05:14:00.391Z,7.23
2023-04-11T05:15:00.585Z,7.21
2023-04-11T05:16:00.723Z,7.18
2023-04-11T05:17:01.090Z,7.23
2023-04-11T05:18:01.248Z,7.24
2023-04-11T05:19:01.364Z,7.21
2023-04-11T05:20:01.643Z,7.18
2023-04-11T05:21:01.734Z,7.15
2023-04-11T05:22:01.922Z,7.17
2023-04-11T05:23:02.105Z,7.21
2023-04-11T05:24:02.263Z,7.23
2023-04-11T05:25:02.587Z,7.23
2023-04-11T05:26:02.738Z,7.24
2023-04-11T05:27:03.025Z,7.28
2023-04-11T05:28:03.262Z,7.28
2023-04-11T05:29:03.392Z,7.31
2023-04-11T05:30:03.727Z,7.33
2023-04-11T05:31:04.062Z,7.43
2023-04-11T05:32:04.253Z,7.47
2023-04-11T05:33:04.480Z,7.47
2023-04-11T05:34:04.646Z,7.48
2023-04-11T05:35:05.004Z,7.51
2023-04-11T05:36:05.158Z,7.54
2023-04-11T05:37:05.322Z,7.56
2023-04-11T05:38:05.526Z,7.56
2023-04-11T05:39:05.691Z,7.56
2023-04-11T05:40:05.874Z,7.58
2023-04-11T05:41:06.050Z,7.57
2023-04-11T05:42:08.019Z,7.60
2023-04-11T05:43:06.520Z,7.60
2023-04-11T05:44:06.845Z,7.58
2023-04-11T05:45:07.070Z,7.61
2023-04-11T05:46:07.238Z,7.66
2023-04-11T05:47:07.371Z,7.63
2023-04-11T05:48:07.816Z,7.61
2023-04-11T05:49:07.980Z,7.63
2023-04-11T05:50:08.317Z,7.67
2023-04-11T05:51:08.469Z,7.70
2023-04-11T05:52:09.350Z,7.73
2023-04-11T05:53:09.073Z,7.73
2023-04-11T05:54:09.360Z,7.76
2023-04-11T05:55:09.589Z,7.87
2023-04-11T05:56:09.835Z,7.80
2023-04-11T05:57:10.150Z,7.83
2023-04-11T05:58:10.318Z,7.87
2023-04-11T05:59:10.480Z,7.88
2023-04-11T06:00:10.684Z,7.91
2023-04-11T06:01:10.954Z,7.93
2023-04-11T06:02:11.237Z,7.93
2023-04-11T06:03:11.457Z,7.95
2023-04-11T06:04:11.711Z,8.00
2023-04-11T06:05:12.217Z,8.01
2023-04-11T06:06:12.082Z,8.01
2023-04-11T06:07:12.433Z,8.00
2023-04-11T06:08:12.422Z,8.01
2023-04-11T06:09:12.592Z,8.06
2023-04-11T06:10:12.925Z,8.13
2023-04-11T06:11:13.079Z,8.09
2023-04-11T06:12:13.267Z,8.06
2023-04-11T06:13:13.458Z,8.08
2023-04-11T06:14:13.739Z,8.03
2023-04-11T06:15:14.093Z,8.06
2023-04-11T06:16:14.359Z,8.09
2023-04-11T06:17:14.655Z,8.13
2023-04-11T06:18:14.932Z,8.10
2023-04-11T06:19:15.413Z,8.09
2023-04-11T06:20:15.450Z,8.09
2023-04-11T06:21:15.742Z,8.10
2023-04-11T06:22:15.919Z,8.09
2023-04-11T06:23:16.227Z,8.09
2023-04-11T06:24:16.522Z,8.05
2023-04-11T06:25:16.712Z,8.05
2023-04-11T06:26:17.022Z,8.10
2023-04-11T06:27:17.184Z,8.08
2023-04-11T06:28:17.357Z,8.10
2023-04-11T06:29:17.544Z,8.15
2023-04-11T06:30:17.852Z,8.12
2023-04-11T06:31:18.029Z,8.06
2023-04-11T06:32:18.346Z,8.12
2023-04-11T06:33:18.650Z,8.15
2023-04-11T06:34:18.821Z,8.08
2023-04-11T06:35:19.020Z,8.09
2023-04-11T06:36:19.322Z,8.16
2023-04-11T06:37:19.588Z,8.16
2023-04-11T06:38:19.884Z,8.12
2023-04-11T06:39:20.205Z,8.15
2023-04-11T06:40:20.532Z,8.03
2023-04-11T06:41:20.785Z,8.01
2023-04-11T06:42:20.959Z,7.93
2023-04-11T06:43:21.265Z,7.82
2023-04-11T06:44:21.488Z,7.66
2023-04-11T06:45:21.673Z,7.56
2023-04-11T06:46:21.962Z,7.51
2023-04-11T06:47:22.240Z,7.29
2023-04-11T06:48:22.531Z,7.32
2023-04-11T06:49:22.749Z,7.24
2023-04-11T06:50:23.031Z,7.15
2023-04-11T06:51:23.177Z,7.10
2023-04-11T06:52:23.501Z,7.05
2023-04-11T06:53:23.661Z,7.02
2023-04-11T06:54:23.836Z,6.97
2023-04-11T06:55:24.038Z,6.95
2023-04-11T06:56:24.181Z,6.85
2023-04-11T06:57:24.491Z,6.87
2023-04-11T06:58:24.657Z,6.81
2023-04-11T06:59:24.916Z,6.82
2023-04-11T07:00:25.158Z,6.82
2023-04-11T07:01:25.430Z,6.84
2023-04-11T07:02:25.808Z,6.79
2023-04-11T07:03:26.007Z,6.84
2023-04-11T07:04:26.293Z,6.84
2023-04-11T07:05:26.423Z,6.82
2023-04-11T07:06:26.634Z,6.82
2023-04-11T07:07:26.771Z,6.87
2023-04-11T07:08:27.079Z,6.85
2023-04-11T07:09:27.260Z,6.85
2023-04-11T07:10:27.457Z,6.87
2023-04-11T07:11:27.620Z,6.85
2023-04-11T07:12:27.791Z,6.85
2023-04-11T07:13:27.983Z,6.82
2023-04-11T07:14:28.139Z,6.79
2023-04-11T07:15:28.337Z,6.77
2023-04-11T07:16:28.547Z,6.75
2023-04-11T07:17:28.682Z,6.75
2023-04-11T07:18:28.836Z,6.75
2023-04-11T07:19:29.132Z,6.77
2023-04-11T07:20:29.449Z,6.79
2023-04-11T07:21:29.606Z,6.78
2023-04-11T07:22:29.788Z,6.78
2023-04-11T07:23:29.966Z,6.79
2023-04-11T07:24:30.147Z,6.77
2023-04-11T07:25:30.534Z,6.78
2023-04-11T07:26:30.744Z,6.77
2023-04-11T07:27:31.058Z,6.78
2023-04-11T07:28:31.247Z,6.79
2023-04-11T07:29:31.413Z,6.77
2023-04-11T07:30:31.633Z,6.77
2023-04-11T07:31:31.784Z,6.78
2023-04-11T07:32:31.981Z,6.74
2023-04-11T07:33:32.237Z,6.78
2023-04-11T07:34:32.411Z,6.75
2023-04-11T07:35:32.652Z,6.74
2023-04-11T07:36:32.757Z,6.75
2023-04-11T07:37:33.068Z,6.77
2023-04-11T07:38:33.261Z,6.75
2023-04-11T07:39:33.437Z,6.75
2023-04-11T07:40:33.636Z,6.75
2023-04-11T07:41:33.912Z,6.77
2023-04-11T07:42:34.089Z,6.75
2023-04-11T07:43:34.434Z,6.77
2023-04-11T07:44:34.688Z,6.81
2023-04-11T07:45:35.053Z,6.82
2023-04-11T07:46:35.292Z,6.87
2023-04-11T07:47:35.662Z,6.84
2023-04-11T07:48:35.887Z,6.84
2023-04-11T07:49:36.057Z,6.84
2023-04-11T07:50:36.263Z,6.81
2023-04-11T07:51:36.537Z,6.85
2023-04-11T07:52:36.711Z,6.88
2023-04-11T07:53:37.016Z,6.89
2023-04-11T07:54:37.227Z,6.88
2023-04-11T07:55:37.412Z,6.93
2023-04-11T07:56:37.679Z,6.92
2023-04-11T07:57:37.975Z,6.96
2023-04-11T07:58:38.150Z,6.95
2023-04-11T07:59:38.458Z,6.95
2023-04-11T08:00:38.649Z,6.96
2023-04-11T08:01:38.859Z,7.02
2023-04-11T08:02:39.320Z,7.07
2023-04-11T08:03:39.566Z,7.07
2023-04-11T08:04:39.534Z,7.13
2023-04-11T08:05:39.855Z,7.13
2023-04-11T08:06:40.079Z,7.20
2023-04-11T08:07:40.399Z,7.21
2023-04-11T08:08:40.571Z,7.21
2023-04-11T08:09:40.857Z,7.28
2023-04-11T08:10:41.191Z,7.24
2023-04-11T08:11:41.346Z,7.28
2023-04-11T08:12:41.518Z,7.25
2023-04-11T08:13:41.820Z,7.29
2023-04-11T08:14:42.033Z,7.38
2023-04-11T08:15:42.316Z,7.45
2023-04-11T08:16:42.629Z,7.47
2023-04-11T08:17:42.788Z,7.47
2023-04-11T08:18:43.078Z,7.54
2023-04-11T08:19:43.268Z,7.63
2023-04-11T08:20:43.460Z,7.70
2023-04-11T08:21:43.620Z,7.72
2023-04-11T08:22:43.923Z,7.73
2023-04-11T08:23:44.932Z,7.79
2023-04-11T08:24:44.404Z,7.87
2023-04-11T08:25:44.584Z,7.91
2023-04-11T08:26:44.764Z,7.93
2023-04-11T08:27:44.940Z,7.90
2023-04-11T08:28:45.118Z,7.93
2023-04-11T08:29:45.416Z,7.95
2023-04-11T08:30:45.867Z,8.01
2023-04-11T08:31:46.066Z,8.00
2023-04-11T08:32:46.344Z,7.98
2023-04-11T08:33:46.602Z,8.01
2023-04-11T08:34:46.903Z,7.98
2023-04-11T08:35:47.122Z,8.03
2023-04-11T08:36:47.286Z,8.08
2023-04-11T08:37:47.878Z,8.09
2023-04-11T08:38:47.763Z,8.16
2023-04-11T08:39:47.937Z,8.23
2023-04-11T08:40:48.144Z,8.23
2023-04-11T08:41:48.335Z,8.28
2023-04-11T08:42:48.484Z,8.33
2023-04-11T08:43:48.684Z,8.33
2023-04-11T08:44:48.983Z,8.34
2023-04-11T08:45:49.356Z,8.36
2023-04-11T08:46:49.477Z,8.42
2023-04-11T08:47:49.689Z,8.46
2023-04-11T08:48:49.823Z,8.51
2023-04-11T08:49:49.999Z,8.55
2023-04-11T08:50:50.247Z,8.56
2023-04-11T08:51:50.356Z,8.64
2023-04-11T08:52:50.563Z,8.73
2023-04-11T08:53:50.850Z,8.84
2023-04-11T08:54:51.016Z,8.78
2023-04-11T08:55:51.215Z,8.73
2023-04-11T08:56:51.640Z,8.81
2023-04-11T08:57:51.626Z,8.91
2023-04-11T08:58:51.777Z,9.04
2023-04-11T08:59:51.973Z,9.18
2023-04-11T09:00:52.215Z,9.22
2023-04-11T09:01:52.407Z,9.22
2023-04-11T09:02:52.629Z,9.28
2023-04-11T09:03:52.715Z,9.36
2023-04-11T09:04:52.908Z,9.39
2023-04-11T09:05:53.182Z,9.39
2023-04-11T09:06:53.350Z,9.39
2023-04-11T09:07:53.646Z,9.25
2023-04-11T09:08:53.950Z,9.22
2023-04-11T09:09:54.156Z,9.16
2023-04-11T09:10:54.338Z,9.25
2023-04-11T09:11:54.574Z,9.25
2023-04-11T09:12:54.822Z,9.23
2023-04-11T09:13:55.156Z,9.25
2023-04-11T09:14:55.189Z,9.25
2023-04-11T09:15:55.391Z,9.18
2023-04-11T09:16:55.550Z,9.28
2023-04-11T09:17:57.598Z,9.28
2023-04-11T09:18:56.192Z,9.28
2023-04-11T09:19:56.317Z,9.21
2023-04-11T09:20:56.514Z,9.18
2023-04-11T09:21:56.777Z,9.11
2023-04-11T09:22:57.088Z,9.03
2023-04-11T09:23:57.390Z,8.99
2023-04-11T09:24:57.563Z,8.92
2023-04-11T09:25:57.871Z,8.89
2023-04-11T09:26:58.050Z,8.85
2023-04-11T09:27:58.224Z,8.84
2023-04-11T09:28:58.794Z,8.87
2023-04-11T09:29:58.721Z,8.91
2023-04-11T09:30:58.978Z,8.95
2023-04-11T09:31:59.090Z,9.02
2023-04-11T09:32:59.342Z,9.04
2023-04-11T09:33:59.742Z,9.14
2023-04-11T09:34:59.692Z,9.46
2023-04-11T09:35:59.854Z,9.48
2023-04-11T09:36:59.992Z,9.47
2023-04-11T09:38:00.191Z,9.50
2023-04-11T09:39:00.388Z,9.51
2023-04-11T09:40:00.559Z,9.58
2023-04-11T09:41:00.818Z,9.50
2023-04-11T09:42:00.925Z,9.62
2023-04-11T09:43:01.100Z,9.72
2023-04-11T09:44:01.285Z,9.79
2023-04-11T09:45:01.542Z,9.82
2023-04-11T09:46:01.731Z,9.80
2023-04-11T09:47:01.893Z,9.66
2023-04-11T09:48:02.029Z,9.62
2023-04-11T09:49:02.728Z,9.58
2023-04-11T09:50:02.406Z,9.55
2023-04-11T09:51:02.597Z,9.47
2023-04-11T09:52:02.865Z,9.46
2023-04-11T09:53:03.245Z,9.43
2023-04-11T09:54:03.600Z,9.22
2023-04-11T09:55:03.536Z,9.11
2023-04-11T09:56:03.838Z,9.06
2023-04-11T09:57:04.004Z,8.92
2023-04-11T09:58:04.314Z,8.92
2023-04-11T09:59:05.723Z,8.84
2023-04-11T10:00:04.799Z,8.69
2023-04-11T10:01:04.995Z,8.69
2023-04-11T10:02:05.314Z,8.66
2023-04-11T10:03:05.492Z,8.61
2023-04-11T10:04:05.743Z,8.58
2023-04-11T10:05:05.929Z,8.64
2023-04-11T10:06:06.119Z,8.70
2023-04-11T10:07:06.296Z,8.69
2023-04-11T10:08:06.488Z,8.69
2023-04-11T10:09:06.686Z,8.67
2023-04-11T10:10:06.862Z,8.74
2023-04-11T10:11:07.043Z,8.73
2023-04-11T10:12:07.234Z,8.79
2023-04-11T10:13:07.387Z,8.74
2023-04-11T10:14:07.537Z,8.70
2023-04-11T10:15:07.747Z,8.76
2023-04-11T10:16:07.957Z,8.71
2023-04-11T10:17:08.078Z,8.76
2023-04-11T10:18:08.281Z,8.69
2023-04-11T10:19:08.472Z,8.67
2023-04-11T10:20:08.624Z,8.58
2023-04-11T10:21:08.809Z,8.55
2023-04-11T10:22:08.963Z,8.61
2023-04-11T10:23:09.136Z,8.64
2023-04-11T10:24:09.343Z,8.71
2023-04-11T10:25:09.529Z,8.70
2023-04-11T10:26:09.726Z,8.74
2023-04-11T10:27:09.896Z,8.74
2023-04-11T10:28:10.091Z,8.76
2023-04-11T10:29:10.262Z,8.71
2023-04-11T10:30:10.453Z,8.71
2023-04-11T10:31:10.666Z,8.60
2023-04-11T10:32:10.937Z,8.76
2023-04-11T10:33:11.130Z,8.84
2023-04-11T10:34:11.306Z,8.85
2023-04-11T10:35:11.491Z,8.79
2023-04-11T10:36:11.836Z,8.84
2023-04-11T10:37:11.878Z,8.85
2023-04-11T10:38:12.077Z,8.87
2023-04-11T10:39:12.202Z,8.87
2023-04-11T10:40:12.415Z,8.84
2023-04-11T10:41:12.712Z,8.99
2023-04-11T10:42:13.187Z,8.95
2023-04-11T10:43:13.166Z,8.97
2023-04-11T10:44:13.407Z,9.00
2023-04-11T10:45:13.593Z,8.89
2023-04-11T10:46:13.715Z,9.02
2023-04-11T10:47:13.923Z,9.06
2023-04-11T10:48:14.080Z,9.13
2023-04-11T10:49:14.265Z,8.99
2023-04-11T10:50:14.442Z,8.94
2023-04-11T10:51:14.658Z,8.89
2023-04-11T10:52:14.803Z,9.03
2023-04-11T10:53:14.996Z,9.03
2023-04-11T10:54:15.163Z,8.88
2023-04-11T10:55:15.341Z,8.85
2023-04-11T10:56:16.164Z,8.87
2023-04-11T10:57:15.845Z,8.89
2023-04-11T10:58:16.102Z,8.88
2023-04-11T10:59:16.438Z,8.88
2023-04-11T11:00:16.592Z,9.00
2023-04-11T11:01:26.518Z,8.95
2023-04-11T11:02:17.338Z,8.81
2023-04-11T11:03:17.649Z,8.79
2023-04-11T11:04:18.058Z,8.87
2023-04-11T11:05:17.978Z,8.82
2023-04-11T11:06:18.158Z,8.87
2023-04-11T11:07:18.341Z,8.82
2023-04-11T11:08:18.514Z,8.88
2023-04-11T11:09:18.679Z,8.84
2023-04-11T11:10:18.868Z,8.79
2023-04-11T11:11:19.066Z,8.82
2023-04-11T11:12:19.327Z,8.85
2023-04-11T11:13:19.645Z,8.89
2023-04-11T11:14:19.924Z,9.00
2023-04-11T11:15:20.128Z,9.02
2023-04-11T11:16:20.337Z,8.95
2023-04-11T11:17:20.488Z,9.08
2023-04-11T11:18:20.659Z,8.99
2023-04-11T11:19:20.845Z,8.99
2023-04-11T11:20:21.036Z,9.02
2023-04-11T11:21:27.210Z,9.08
2023-04-11T11:22:21.373Z,9.06
2023-04-11T11:23:21.538Z,9.14
2023-04-11T11:24:21.737Z,9.14
2023-04-11T11:25:21.885Z,9.13
2023-04-11T11:26:22.104Z,9.21
2023-04-11T11:27:22.386Z,9.21
2023-04-11T11:28:22.561Z,9.26
2023-04-11T11:29:22.762Z,9.25
2023-04-11T11:30:22.949Z,9.29
2023-04-11T11:31:23.205Z,9.43
2023-04-11T11:32:23.327Z,9.37
2023-04-11T11:33:23.505Z,9.44
2023-04-11T11:34:24.337Z,9.40
2023-04-11T11:35:23.872Z,9.40
2023-04-11T11:36:24.103Z,9.56
2023-04-11T11:37:24.250Z,9.55
2023-04-11T11:38:24.422Z,9.51
2023-04-11T11:39:24.614Z,9.56
2023-04-11T11:40:24.796Z,9.62
2023-04-11T11:41:25.009Z,9.68
2023-04-11T11:42:25.150Z,9.76
2023-04-11T11:43:25.367Z,9.72
2023-04-11T11:44:25.513Z,9.72
2023-04-11T11:46:25.973Z,9.65
2023-04-11T11:47:26.038Z,9.61
2023-04-11T11:48:26.217Z,9.65
2023-04-11T11:49:26.385Z,9.69
2023-04-11T11:50:26.591Z,9.80
2023-04-11T11:51:26.897Z,9.66
2023-04-11T11:52:27.072Z,9.80
2023-04-11T11:53:27.269Z,9.94
2023-04-11T11:54:27.594Z,9.74
2023-04-11T11:55:27.750Z,9.83
2023-04-11T11:56:28.077Z,9.66
2023-04-11T11:57:28.365Z,9.79
2023-04-11T11:58:28.568Z,9.74
2023-04-11T11:59:28.850Z,9.72
2023-04-11T12:00:29.119Z,9.72
2023-04-11T12:01:29.322Z,9.59
2023-04-11T12:02:29.596Z,9.50
2023-04-11T12:03:30.126Z,9.41
2023-04-11T12:04:30.271Z,9.43
2023-04-11T12:05:30.812Z,9.47
2023-04-11T12:06:30.608Z,9.43
2023-04-11T12:07:30.877Z,9.41
2023-04-11T12:08:31.061Z,9.39
2023-04-11T12:09:31.361Z,9.39
2023-04-11T12:10:31.560Z,9.41
2023-04-11T12:11:31.727Z,9.40
2023-04-11T12:12:32.009Z,9.36
2023-04-11T12:13:32.317Z,9.23
2023-04-11T12:14:32.490Z,9.23
2023-04-11T12:15:32.826Z,9.14
2023-04-11T12:16:33.082Z,9.03
2023-04-11T12:17:35.353Z,9.00
2023-04-11T12:18:33.600Z,8.89
2023-04-11T12:19:33.756Z,8.85
2023-04-11T12:20:33.939Z,8.85
2023-04-11T12:21:34.121Z,8.88
2023-04-11T12:22:34.332Z,8.87
2023-04-11T12:23:34.484Z,8.87
2023-04-11T12:24:34.673Z,8.81
2023-04-11T12:25:34.849Z,8.73
2023-04-11T12:26:35.099Z,8.63
2023-04-11T12:27:35.193Z,8.49
2023-04-11T12:28:35.374Z,8.33
2023-04-11T12:29:35.568Z,8.16
2023-04-11T12:30:35.729Z,8.01
2023-04-11T12:31:35.970Z,7.72
2023-04-11T12:32:36.292Z,7.54
2023-04-11T12:33:36.400Z,7.40
2023-04-11T12:34:36.559Z,7.35
2023-04-11T12:35:37.012Z,7.23
2023-04-11T12:36:37.102Z,7.11
2023-04-11T12:37:37.246Z,7.03
2023-04-11T12:38:37.540Z,7.00
2023-04-11T12:39:37.722Z,6.97
2023-04-11T12:40:37.954Z,7.02
2023-04-11T12:41:38.212Z,7.03
2023-04-11T12:42:49.076Z,7.00
2023-04-11T12:43:38.803Z,7.05
2023-04-11T12:44:38.972Z,7.07
2023-04-11T12:45:39.172Z,7.17
2023-04-11T12:46:39.529Z,7.17
2023-04-11T12:47:39.698Z,7.25
2023-04-11T12:48:39.764Z,7.35
2023-04-11T12:49:39.962Z,7.36
2023-04-11T12:50:40.142Z,7.45
2023-04-11T12:51:40.467Z,7.54
2023-04-11T12:52:40.623Z,7.60
2023-04-11T12:53:40.806Z,7.73
2023-04-11T12:54:40.988Z,7.72
2023-04-11T12:55:41.220Z,7.82
2023-04-11T12:56:41.378Z,7.75
2023-04-11T12:57:41.650Z,7.85
2023-04-11T12:58:41.749Z,7.90
2023-04-11T12:59:41.926Z,8.01
2023-04-11T13:00:42.133Z,8.10
2023-04-11T13:01:42.385Z,8.15
2023-04-11T13:02:45.046Z,8.13
2023-04-11T13:03:43.024Z,8.13
2023-04-11T13:04:43.141Z,8.15
2023-04-11T13:05:43.244Z,8.15
2023-04-11T13:06:43.444Z,8.20
2023-04-11T13:07:43.607Z,8.24
2023-04-11T13:08:43.941Z,8.23
2023-04-11T13:09:44.078Z,8.19
2023-04-11T13:10:44.290Z,8.24
2023-04-11T13:11:44.457Z,8.27
2023-04-11T13:12:45.124Z,8.34
2023-04-11T13:13:44.798Z,8.37
2023-04-11T13:14:45.006Z,8.34
2023-04-11T13:15:45.215Z,8.37
2023-04-11T13:16:45.577Z,8.42
2023-04-11T13:17:45.971Z,8.42
2023-04-11T13:18:45.943Z,8.34
2023-04-11T13:19:46.114Z,8.31
2023-04-11T13:20:46.334Z,8.19
2023-04-11T13:21:46.625Z,8.12
2023-04-11T13:22:46.905Z,8.08